sensor_id;sensor_type;location;lat;lon;timestamp;P1;durP1;ratioP1;P2;durP2;ratioP2
30543;SDS011;43388;46.308;4.600;2022-12-10T00:01:04;48.28;;;34.33;;
30543;SDS011;43388;46.308;4.600;2022-12-10T00:03:30;46.97;;;33.85;;
30543;SDS011;43388;46.308;4.600;2022-12-10T00:05:59;50.47;;;34.95;;
30543;SDS011;43388;46.308;4.600;2022-12-10T00:08:25;46.35;;;33.38;;
30543;SDS011;43388;46.308;4.600;2022-12-10T00:10:51;52.88;;;35.08;;
30543;SDS011;43388;46.308;4.600;2022-12-10T00:13:17;46.97;;;32.70;;
30543;SDS011;43388;46.308;4.600;2022-12-10T00:15:43;47.08;;;35.97;;
30543;SDS011;43388;46.308;4.600;2022-12-10T00:18:09;49.28;;;36.28;;
30543;SDS011;43388;46.308;4.600;2022-12-10T00:20:38;46.28;;;34.95;;
30543;SDS011;43388;46.308;4.600;2022-12-10T00:23:04;51.10;;;35.75;;
30543;SDS011;43388;46.308;4.600;2022-12-10T00:25:31;46.15;;;35.85;;
30543;SDS011;43388;46.308;4.600;2022-12-10T00:27:57;50.05;;;35.65;;
30543;SDS011;43388;46.308;4.600;2022-12-10T00:30:23;51.63;;;37.50;;
30543;SDS011;43388;46.308;4.600;2022-12-10T00:32:49;48.25;;;35.70;;
30543;SDS011;43388;46.308;4.600;2022-12-10T00:35:16;50.35;;;36.47;;
30543;SDS011;43388;46.308;4.600;2022-12-10T00:37:42;46.00;;;34.22;;
30543;SDS011;43388;46.308;4.600;2022-12-10T00:40:08;47.38;;;34.65;;
30543;SDS011;43388;46.308;4.600;2022-12-10T00:42:37;46.72;;;35.72;;
30543;SDS011;43388;46.308;4.600;2022-12-10T00:45:03;48.45;;;35.65;;
30543;SDS011;43388;46.308;4.600;2022-12-10T00:47:30;44.63;;;34.38;;
30543;SDS011;43388;46.308;4.600;2022-12-10T00:49:56;48.65;;;36.20;;
30543;SDS011;43388;46.308;4.600;2022-12-10T00:52:22;48.38;;;36.63;;
30543;SDS011;43388;46.308;4.600;2022-12-10T00:54:48;48.25;;;35.70;;
30543;SDS011;43388;46.308;4.600;2022-12-10T00:57:14;51.35;;;36.95;;
30543;SDS011;43388;46.308;4.600;2022-12-10T00:59:40;48.35;;;36.10;;
30543;SDS011;43388;46.308;4.600;2022-12-10T01:02:06;47.75;;;35.88;;
30543;SDS011;43388;46.308;4.600;2022-12-10T01:04:32;48.20;;;35.80;;
30543;SDS011;43388;46.308;4.600;2022-12-10T01:06:58;48.80;;;36.17;;
30543;SDS011;43388;46.308;4.600;2022-12-10T01:09:25;50.15;;;37.95;;
30543;SDS011;43388;46.308;4.600;2022-12-10T01:11:52;58.55;;;39.33;;
30543;SDS011;43388;46.308;4.600;2022-12-10T01:14:20;53.20;;;36.15;;
30543;SDS011;43388;46.308;4.600;2022-12-10T01:16:46;52.08;;;37.75;;
30543;SDS011;43388;46.308;4.600;2022-12-10T01:19:12;50.30;;;36.35;;
30543;SDS011;43388;46.308;4.600;2022-12-10T01:21:38;49.50;;;36.63;;
30543;SDS011;43388;46.308;4.600;2022-12-10T01:24:04;50.78;;;36.13;;
30543;SDS011;43388;46.308;4.600;2022-12-10T01:26:31;44.28;;;33.80;;
30543;SDS011;43388;46.308;4.600;2022-12-10T01:28:58;44.70;;;35.08;;
30543;SDS011;43388;46.308;4.600;2022-12-10T01:33:50;47.38;;;35.10;;
30543;SDS011;43388;46.308;4.600;2022-12-10T01:36:18;47.22;;;35.55;;
30543;SDS011;43388;46.308;4.600;2022-12-10T01:38:44;48.38;;;35.92;;
30543;SDS011;43388;46.308;4.600;2022-12-10T01:41:44;43.28;;;33.65;;
30543;SDS011;43388;46.308;4.600;2022-12-10T01:46:35;43.85;;;33.40;;
30543;SDS011;43388;46.308;4.600;2022-12-10T01:49:03;43.53;;;34.35;;
30543;SDS011;43388;46.308;4.600;2022-12-10T01:51:30;40.85;;;32.67;;
30543;SDS011;43388;46.308;4.600;2022-12-10T01:53:57;46.22;;;34.75;;
30543;SDS011;43388;46.308;4.600;2022-12-10T01:56:23;46.53;;;34.78;;
30543;SDS011;43388;46.308;4.600;2022-12-10T01:58:50;45.33;;;33.47;;
30543;SDS011;43388;46.308;4.600;2022-12-10T02:11:24;44.53;;;35.63;;
30543;SDS011;43388;46.308;4.600;2022-12-10T02:14:02;44.85;;;33.60;;
30543;SDS011;43388;46.308;4.600;2022-12-10T02:18:56;41.47;;;33.00;;
30543;SDS011;43388;46.308;4.600;2022-12-10T02:21:25;44.08;;;34.30;;
30543;SDS011;43388;46.308;4.600;2022-12-10T02:23:54;42.83;;;32.90;;
30543;SDS011;43388;46.308;4.600;2022-12-10T02:31:33;39.45;;;29.73;;
30543;SDS011;43388;46.308;4.600;2022-12-10T02:34:01;33.22;;;27.15;;
30543;SDS011;43388;46.308;4.600;2022-12-10T02:36:33;44.05;;;33.88;;
30543;SDS011;43388;46.308;4.600;2022-12-10T02:39:01;46.40;;;34.63;;
30543;SDS011;43388;46.308;4.600;2022-12-10T02:41:28;39.33;;;31.60;;
30543;SDS011;43388;46.308;4.600;2022-12-10T02:43:56;41.05;;;31.65;;
30543;SDS011;43388;46.308;4.600;2022-12-10T02:46:23;46.22;;;35.88;;
30543;SDS011;43388;46.308;4.600;2022-12-10T02:48:49;48.78;;;35.97;;
30543;SDS011;43388;46.308;4.600;2022-12-10T02:51:16;45.60;;;32.85;;
30543;SDS011;43388;46.308;4.600;2022-12-10T02:53:43;43.65;;;33.20;;
30543;SDS011;43388;46.308;4.600;2022-12-10T02:56:20;45.17;;;28.95;;
30543;SDS011;43388;46.308;4.600;2022-12-10T03:08:49;32.42;;;24.77;;
30543;SDS011;43388;46.308;4.600;2022-12-10T03:11:17;31.70;;;25.58;;
30543;SDS011;43388;46.308;4.600;2022-12-10T03:14:04;27.45;;;24.35;;
30543;SDS011;43388;46.308;4.600;2022-12-10T03:16:33;30.52;;;23.40;;
30543;SDS011;43388;46.308;4.600;2022-12-10T03:19:01;29.50;;;23.75;;
30543;SDS011;43388;46.308;4.600;2022-12-10T03:21:28;26.60;;;23.08;;
30543;SDS011;43388;46.308;4.600;2022-12-10T03:23:55;28.02;;;23.63;;
30543;SDS011;43388;46.308;4.600;2022-12-10T03:26:22;29.48;;;24.40;;
30543;SDS011;43388;46.308;4.600;2022-12-10T03:29:10;30.98;;;24.67;;
30543;SDS011;43388;46.308;4.600;2022-12-10T03:31:34;32.00;;;25.58;;
30543;SDS011;43388;46.308;4.600;2022-12-10T03:34:01;29.95;;;24.80;;
30543;SDS011;43388;46.308;4.600;2022-12-10T03:36:27;32.85;;;26.42;;
30543;SDS011;43388;46.308;4.600;2022-12-10T03:38:55;34.78;;;28.00;;
30543;SDS011;43388;46.308;4.600;2022-12-10T03:41:21;30.40;;;26.80;;
30543;SDS011;43388;46.308;4.600;2022-12-10T03:43:55;30.48;;;25.50;;
30543;SDS011;43388;46.308;4.600;2022-12-10T03:46:21;30.42;;;25.95;;
30543;SDS011;43388;46.308;4.600;2022-12-10T03:48:48;32.25;;;26.63;;
30543;SDS011;43388;46.308;4.600;2022-12-10T03:51:14;30.83;;;25.33;;
30543;SDS011;43388;46.308;4.600;2022-12-10T03:53:40;33.38;;;26.85;;
30543;SDS011;43388;46.308;4.600;2022-12-10T03:56:06;33.47;;;26.73;;
30543;SDS011;43388;46.308;4.600;2022-12-10T03:58:32;32.88;;;27.20;;
30543;SDS011;43388;46.308;4.600;2022-12-10T04:00:58;34.00;;;28.80;;
30543;SDS011;43388;46.308;4.600;2022-12-10T04:03:24;32.33;;;27.33;;
30543;SDS011;43388;46.308;4.600;2022-12-10T04:05:50;35.70;;;28.88;;
30543;SDS011;43388;46.308;4.600;2022-12-10T04:08:16;33.78;;;27.48;;
30543;SDS011;43388;46.308;4.600;2022-12-10T04:10:42;34.38;;;29.23;;
30543;SDS011;43388;46.308;4.600;2022-12-10T04:13:08;32.88;;;27.92;;
30543;SDS011;43388;46.308;4.600;2022-12-10T04:15:52;32.33;;;27.33;;
30543;SDS011;43388;46.308;4.600;2022-12-10T04:18:37;32.33;;;28.20;;
30543;SDS011;43388;46.308;4.600;2022-12-10T04:21:03;35.60;;;30.52;;
30543;SDS011;43388;46.308;4.600;2022-12-10T04:23:48;40.38;;;30.17;;
30543;SDS011;43388;46.308;4.600;2022-12-10T04:26:32;37.28;;;29.80;;
30543;SDS011;43388;46.308;4.600;2022-12-10T04:29:16;35.42;;;30.38;;
30543;SDS011;43388;46.308;4.600;2022-12-10T04:31:43;41.45;;;31.75;;
30543;SDS011;43388;46.308;4.600;2022-12-10T04:34:09;37.00;;;29.38;;
30543;SDS011;43388;46.308;4.600;2022-12-10T04:36:35;39.28;;;31.02;;
30543;SDS011;43388;46.308;4.600;2022-12-10T04:39:01;38.50;;;31.38;;
30543;SDS011;43388;46.308;4.600;2022-12-10T04:41:27;37.78;;;30.70;;
30543;SDS011;43388;46.308;4.600;2022-12-10T04:43:53;41.40;;;30.85;;
30543;SDS011;43388;46.308;4.600;2022-12-10T04:46:19;39.70;;;31.55;;
30543;SDS011;43388;46.308;4.600;2022-12-10T04:48:45;37.13;;;30.52;;
30543;SDS011;43388;46.308;4.600;2022-12-10T04:51:11;38.90;;;30.90;;
30543;SDS011;43388;46.308;4.600;2022-12-10T04:53:37;38.83;;;29.27;;
30543;SDS011;43388;46.308;4.600;2022-12-10T04:56:03;39.42;;;30.38;;
30543;SDS011;43388;46.308;4.600;2022-12-10T04:58:31;40.90;;;30.15;;
30543;SDS011;43388;46.308;4.600;2022-12-10T05:01:01;40.90;;;31.38;;
30543;SDS011;43388;46.308;4.600;2022-12-10T05:03:27;40.13;;;32.67;;
30543;SDS011;43388;46.308;4.600;2022-12-10T05:05:53;35.97;;;29.85;;
30543;SDS011;43388;46.308;4.600;2022-12-10T05:08:19;42.83;;;31.48;;
30543;SDS011;43388;46.308;4.600;2022-12-10T05:10:45;41.58;;;32.35;;
30543;SDS011;43388;46.308;4.600;2022-12-10T05:13:11;38.97;;;31.95;;
30543;SDS011;43388;46.308;4.600;2022-12-10T05:15:38;40.63;;;31.38;;
30543;SDS011;43388;46.308;4.600;2022-12-10T05:18:04;42.00;;;32.75;;
30543;SDS011;43388;46.308;4.600;2022-12-10T05:20:30;39.97;;;32.35;;
30543;SDS011;43388;46.308;4.600;2022-12-10T05:22:56;42.95;;;33.35;;
30543;SDS011;43388;46.308;4.600;2022-12-10T05:25:41;47.47;;;33.80;;
30543;SDS011;43388;46.308;4.600;2022-12-10T05:28:18;45.78;;;33.03;;
30543;SDS011;43388;46.308;4.600;2022-12-10T05:30:44;42.13;;;31.92;;
30543;SDS011;43388;46.308;4.600;2022-12-10T05:33:10;39.38;;;31.20;;
30543;SDS011;43388;46.308;4.600;2022-12-10T05:35:36;42.65;;;32.30;;
30543;SDS011;43388;46.308;4.600;2022-12-10T05:38:03;39.80;;;33.40;;
30543;SDS011;43388;46.308;4.600;2022-12-10T05:40:30;45.53;;;33.25;;
30543;SDS011;43388;46.308;4.600;2022-12-10T05:42:56;44.35;;;32.40;;
30543;SDS011;43388;46.308;4.600;2022-12-10T05:45:22;44.13;;;32.25;;
30543;SDS011;43388;46.308;4.600;2022-12-10T05:47:48;48.13;;;35.15;;
30543;SDS011;43388;46.308;4.600;2022-12-10T05:50:14;47.38;;;32.70;;
30543;SDS011;43388;46.308;4.600;2022-12-10T05:52:40;44.60;;;33.53;;
30543;SDS011;43388;46.308;4.600;2022-12-10T05:55:06;45.30;;;34.45;;
30543;SDS011;43388;46.308;4.600;2022-12-10T05:57:32;44.45;;;33.05;;
30543;SDS011;43388;46.308;4.600;2022-12-10T05:59:58;43.80;;;32.60;;
30543;SDS011;43388;46.308;4.600;2022-12-10T06:02:24;48.20;;;33.30;;
30543;SDS011;43388;46.308;4.600;2022-12-10T06:04:50;44.22;;;32.95;;
30543;SDS011;43388;46.308;4.600;2022-12-10T06:07:16;43.63;;;31.48;;
30543;SDS011;43388;46.308;4.600;2022-12-10T06:09:42;41.72;;;32.20;;
30543;SDS011;43388;46.308;4.600;2022-12-10T06:12:08;45.97;;;33.72;;
30543;SDS011;43388;46.308;4.600;2022-12-10T06:14:34;43.30;;;32.47;;
30543;SDS011;43388;46.308;4.600;2022-12-10T06:17:00;42.28;;;32.05;;
30543;SDS011;43388;46.308;4.600;2022-12-10T06:19:26;47.47;;;34.80;;
30543;SDS011;43388;46.308;4.600;2022-12-10T06:21:52;48.65;;;34.88;;
30543;SDS011;43388;46.308;4.600;2022-12-10T06:24:18;43.67;;;32.95;;
30543;SDS011;43388;46.308;4.600;2022-12-10T06:26:44;40.67;;;31.15;;
30543;SDS011;43388;46.308;4.600;2022-12-10T06:29:10;47.05;;;36.38;;
30543;SDS011;43388;46.308;4.600;2022-12-10T06:31:36;36.05;;;27.63;;
30543;SDS011;43388;46.308;4.600;2022-12-10T06:34:02;34.60;;;27.27;;
30543;SDS011;43388;46.308;4.600;2022-12-10T06:36:28;39.35;;;27.90;;
30543;SDS011;43388;46.308;4.600;2022-12-10T06:38:54;40.90;;;30.10;;
30543;SDS011;43388;46.308;4.600;2022-12-10T06:41:20;31.10;;;25.27;;
30543;SDS011;43388;46.308;4.600;2022-12-10T06:43:47;37.47;;;26.23;;
30543;SDS011;43388;46.308;4.600;2022-12-10T06:46:14;35.63;;;28.25;;
30543;SDS011;43388;46.308;4.600;2022-12-10T06:48:40;33.50;;;27.33;;
30543;SDS011;43388;46.308;4.600;2022-12-10T06:51:07;35.70;;;26.95;;
30543;SDS011;43388;46.308;4.600;2022-12-10T06:53:34;40.53;;;29.55;;
30543;SDS011;43388;46.308;4.600;2022-12-10T06:56:01;41.63;;;29.55;;
30543;SDS011;43388;46.308;4.600;2022-12-10T06:58:28;45.67;;;32.88;;
30543;SDS011;43388;46.308;4.600;2022-12-10T07:01:01;38.70;;;29.17;;
30543;SDS011;43388;46.308;4.600;2022-12-10T07:03:27;40.17;;;30.20;;
30543;SDS011;43388;46.308;4.600;2022-12-10T07:05:56;42.55;;;30.90;;
30543;SDS011;43388;46.308;4.600;2022-12-10T07:08:22;44.92;;;32.40;;
30543;SDS011;43388;46.308;4.600;2022-12-10T07:10:48;48.22;;;31.42;;
30543;SDS011;43388;46.308;4.600;2022-12-10T07:13:14;42.08;;;30.42;;
30543;SDS011;43388;46.308;4.600;2022-12-10T07:15:40;38.78;;;26.83;;
30543;SDS011;43388;46.308;4.600;2022-12-10T07:18:06;37.38;;;26.70;;
30543;SDS011;43388;46.308;4.600;2022-12-10T07:20:32;42.85;;;29.40;;
30543;SDS011;43388;46.308;4.600;2022-12-10T07:22:58;38.40;;;27.60;;
30543;SDS011;43388;46.308;4.600;2022-12-10T07:25:24;38.53;;;29.38;;
30543;SDS011;43388;46.308;4.600;2022-12-10T07:27:50;41.67;;;28.50;;
30543;SDS011;43388;46.308;4.600;2022-12-10T07:30:16;37.67;;;29.13;;
30543;SDS011;43388;46.308;4.600;2022-12-10T07:32:42;43.22;;;30.05;;
30543;SDS011;43388;46.308;4.600;2022-12-10T07:35:08;39.47;;;30.35;;
30543;SDS011;43388;46.308;4.600;2022-12-10T07:37:34;40.55;;;28.40;;
30543;SDS011;43388;46.308;4.600;2022-12-10T07:40:00;38.95;;;29.15;;
30543;SDS011;43388;46.308;4.600;2022-12-10T07:42:26;37.53;;;28.45;;
30543;SDS011;43388;46.308;4.600;2022-12-10T07:44:52;45.63;;;29.70;;
30543;SDS011;43388;46.308;4.600;2022-12-10T07:47:18;45.58;;;30.75;;
30543;SDS011;43388;46.308;4.600;2022-12-10T07:49:44;41.22;;;30.80;;
30543;SDS011;43388;46.308;4.600;2022-12-10T07:52:11;43.97;;;30.30;;
30543;SDS011;43388;46.308;4.600;2022-12-10T07:54:37;40.78;;;30.05;;
30543;SDS011;43388;46.308;4.600;2022-12-10T07:57:03;37.40;;;28.63;;
30543;SDS011;43388;46.308;4.600;2022-12-10T07:59:29;50.10;;;33.78;;
30543;SDS011;43388;46.308;4.600;2022-12-10T08:01:56;39.97;;;29.38;;
30543;SDS011;43388;46.308;4.600;2022-12-10T08:04:22;40.03;;;30.33;;
30543;SDS011;43388;46.308;4.600;2022-12-10T08:06:48;41.92;;;30.42;;
30543;SDS011;43388;46.308;4.600;2022-12-10T08:09:14;37.47;;;28.00;;
30543;SDS011;43388;46.308;4.600;2022-12-10T08:11:40;36.88;;;28.10;;
30543;SDS011;43388;46.308;4.600;2022-12-10T08:14:06;37.67;;;28.02;;
30543;SDS011;43388;46.308;4.600;2022-12-10T08:16:32;40.03;;;28.88;;
30543;SDS011;43388;46.308;4.600;2022-12-10T08:18:59;36.92;;;28.70;;
30543;SDS011;43388;46.308;4.600;2022-12-10T08:21:29;38.92;;;28.38;;
30543;SDS011;43388;46.308;4.600;2022-12-10T08:23:55;40.35;;;29.88;;
30543;SDS011;43388;46.308;4.600;2022-12-10T08:26:22;37.28;;;28.00;;
30543;SDS011;43388;46.308;4.600;2022-12-10T08:28:49;36.80;;;28.15;;
30543;SDS011;43388;46.308;4.600;2022-12-10T08:31:16;35.30;;;26.40;;
30543;SDS011;43388;46.308;4.600;2022-12-10T08:33:43;35.13;;;27.25;;
30543;SDS011;43388;46.308;4.600;2022-12-10T08:36:10;36.78;;;27.33;;
30543;SDS011;43388;46.308;4.600;2022-12-10T08:38:37;35.25;;;27.88;;
30543;SDS011;43388;46.308;4.600;2022-12-10T08:41:07;37.63;;;27.75;;
30543;SDS011;43388;46.308;4.600;2022-12-10T08:43:33;34.58;;;27.60;;
30543;SDS011;43388;46.308;4.600;2022-12-10T08:45:59;36.67;;;26.65;;
30543;SDS011;43388;46.308;4.600;2022-12-10T08:48:25;34.20;;;25.58;;
30543;SDS011;43388;46.308;4.600;2022-12-10T08:50:51;35.90;;;28.63;;
30543;SDS011;43388;46.308;4.600;2022-12-10T08:53:17;35.10;;;26.98;;
30543;SDS011;43388;46.308;4.600;2022-12-10T08:55:43;37.25;;;27.63;;
30543;SDS011;43388;46.308;4.600;2022-12-10T08:58:09;36.05;;;27.10;;
30543;SDS011;43388;46.308;4.600;2022-12-10T09:00:36;35.92;;;26.45;;
30543;SDS011;43388;46.308;4.600;2022-12-10T09:03:02;40.78;;;29.80;;
30543;SDS011;43388;46.308;4.600;2022-12-10T09:05:29;37.72;;;27.45;;
30543;SDS011;43388;46.308;4.600;2022-12-10T09:07:55;35.50;;;27.15;;
30543;SDS011;43388;46.308;4.600;2022-12-10T09:10:21;39.13;;;28.38;;
30543;SDS011;43388;46.308;4.600;2022-12-10T09:12:47;34.33;;;26.63;;
30543;SDS011;43388;46.308;4.600;2022-12-10T09:15:13;30.10;;;22.70;;
30543;SDS011;43388;46.308;4.600;2022-12-10T09:17:39;29.98;;;22.75;;
30543;SDS011;43388;46.308;4.600;2022-12-10T09:20:06;28.00;;;22.60;;
30543;SDS011;43388;46.308;4.600;2022-12-10T09:22:32;28.15;;;21.70;;
30543;SDS011;43388;46.308;4.600;2022-12-10T09:25:02;30.40;;;21.75;;
30543;SDS011;43388;46.308;4.600;2022-12-10T09:27:28;29.67;;;22.40;;
30543;SDS011;43388;46.308;4.600;2022-12-10T09:29:55;25.60;;;20.88;;
30543;SDS011;43388;46.308;4.600;2022-12-10T09:32:21;25.38;;;21.20;;
30543;SDS011;43388;46.308;4.600;2022-12-10T09:34:50;29.42;;;22.42;;
30543;SDS011;43388;46.308;4.600;2022-12-10T09:37:16;28.73;;;23.10;;
30543;SDS011;43388;46.308;4.600;2022-12-10T09:39:42;27.65;;;20.85;;
30543;SDS011;43388;46.308;4.600;2022-12-10T09:47:33;25.65;;;21.13;;
30543;SDS011;43388;46.308;4.600;2022-12-10T09:52:35;29.08;;;20.88;;
30543;SDS011;43388;46.308;4.600;2022-12-10T09:55:04;26.27;;;20.08;;
30543;SDS011;43388;46.308;4.600;2022-12-10T09:57:32;29.75;;;21.77;;
30543;SDS011;43388;46.308;4.600;2022-12-10T10:00:02;25.40;;;21.27;;
30543;SDS011;43388;46.308;4.600;2022-12-10T10:02:29;29.77;;;21.40;;
30543;SDS011;43388;46.308;4.600;2022-12-10T10:09:58;29.30;;;21.92;;
30543;SDS011;43388;46.308;4.600;2022-12-10T10:12:27;31.52;;;22.48;;
30543;SDS011;43388;46.308;4.600;2022-12-10T10:14:53;31.75;;;23.25;;
30543;SDS011;43388;46.308;4.600;2022-12-10T10:17:33;31.65;;;24.00;;
30543;SDS011;43388;46.308;4.600;2022-12-10T10:20:01;32.38;;;24.60;;
30543;SDS011;43388;46.308;4.600;2022-12-10T10:22:27;27.77;;;22.35;;
30543;SDS011;43388;46.308;4.600;2022-12-10T10:24:53;30.60;;;23.13;;
30543;SDS011;43388;46.308;4.600;2022-12-10T10:27:21;31.10;;;24.38;;
30543;SDS011;43388;46.308;4.600;2022-12-10T10:29:48;29.42;;;22.65;;
30543;SDS011;43388;46.308;4.600;2022-12-10T10:32:19;30.65;;;23.25;;
30543;SDS011;43388;46.308;4.600;2022-12-10T10:34:46;32.03;;;24.10;;
30543;SDS011;43388;46.308;4.600;2022-12-10T10:37:18;34.50;;;25.35;;
30543;SDS011;43388;46.308;4.600;2022-12-10T10:39:49;33.50;;;24.70;;
30543;SDS011;43388;46.308;4.600;2022-12-10T10:42:21;29.45;;;23.15;;
30543;SDS011;43388;46.308;4.600;2022-12-10T10:44:49;24.97;;;20.70;;
30543;SDS011;43388;46.308;4.600;2022-12-10T10:47:32;32.13;;;24.65;;
30543;SDS011;43388;46.308;4.600;2022-12-10T10:49:58;36.40;;;24.63;;
30543;SDS011;43388;46.308;4.600;2022-12-10T10:52:28;31.75;;;23.80;;
30543;SDS011;43388;46.308;4.600;2022-12-10T10:54:55;31.63;;;23.42;;
30543;SDS011;43388;46.308;4.600;2022-12-10T10:59:54;31.90;;;25.38;;
30543;SDS011;43388;46.308;4.600;2022-12-10T11:02:26;32.50;;;24.40;;
30543;SDS011;43388;46.308;4.600;2022-12-10T11:04:55;32.78;;;24.80;;
30543;SDS011;43388;46.308;4.600;2022-12-10T11:07:38;34.55;;;24.95;;
30543;SDS011;43388;46.308;4.600;2022-12-10T11:10:38;31.98;;;23.60;;
30543;SDS011;43388;46.308;4.600;2022-12-10T11:15:30;34.90;;;25.05;;
30543;SDS011;43388;46.308;4.600;2022-12-10T11:17:57;32.35;;;23.98;;
30543;SDS011;43388;46.308;4.600;2022-12-10T11:20:25;36.47;;;25.80;;
30543;SDS011;43388;46.308;4.600;2022-12-10T11:22:55;34.75;;;24.52;;
30543;SDS011;43388;46.308;4.600;2022-12-10T11:25:46;34.17;;;25.85;;
30543;SDS011;43388;46.308;4.600;2022-12-10T11:30:35;34.58;;;25.75;;
30543;SDS011;43388;46.308;4.600;2022-12-10T11:46:25;34.13;;;24.83;;
30543;SDS011;43388;46.308;4.600;2022-12-10T11:49:02;35.97;;;25.73;;
30543;SDS011;43388;46.308;4.600;2022-12-10T11:54:45;35.17;;;25.10;;
30543;SDS011;43388;46.308;4.600;2022-12-10T11:59:51;37.92;;;26.25;;
30543;SDS011;43388;46.308;4.600;2022-12-10T12:07:43;35.75;;;24.55;;
30543;SDS011;43388;46.308;4.600;2022-12-10T12:12:59;30.50;;;23.65;;
30543;SDS011;43388;46.308;4.600;2022-12-10T12:15:37;38.17;;;25.38;;
30543;SDS011;43388;46.308;4.600;2022-12-10T12:18:14;31.70;;;24.38;;
30543;SDS011;43388;46.308;4.600;2022-12-10T12:20:45;32.65;;;24.83;;
30543;SDS011;43388;46.308;4.600;2022-12-10T12:23:33;34.22;;;24.60;;
30543;SDS011;43388;46.308;4.600;2022-12-10T12:26:02;33.83;;;26.05;;
30543;SDS011;43388;46.308;4.600;2022-12-10T12:28:31;35.97;;;25.42;;
30543;SDS011;43388;46.308;4.600;2022-12-10T12:30:59;40.25;;;28.05;;
30543;SDS011;43388;46.308;4.600;2022-12-10T12:33:29;33.10;;;25.15;;
30543;SDS011;43388;46.308;4.600;2022-12-10T12:35:58;33.42;;;24.90;;
30543;SDS011;43388;46.308;4.600;2022-12-10T12:41:13;32.03;;;24.92;;
30543;SDS011;43388;46.308;4.600;2022-12-10T12:43:44;33.70;;;24.13;;
30543;SDS011;43388;46.308;4.600;2022-12-10T12:46:17;35.00;;;25.45;;
30543;SDS011;43388;46.308;4.600;2022-12-10T12:48:55;31.95;;;24.75;;
30543;SDS011;43388;46.308;4.600;2022-12-10T12:51:44;31.50;;;24.33;;
30543;SDS011;43388;46.308;4.600;2022-12-10T12:54:10;30.05;;;23.85;;
30543;SDS011;43388;46.308;4.600;2022-12-10T12:59:16;31.98;;;24.10;;
30543;SDS011;43388;46.308;4.600;2022-12-10T13:01:49;30.17;;;23.65;;
30543;SDS011;43388;46.308;4.600;2022-12-10T13:04:16;30.60;;;24.42;;
30543;SDS011;43388;46.308;4.600;2022-12-10T13:06:42;27.75;;;21.63;;
30543;SDS011;43388;46.308;4.600;2022-12-10T13:09:28;28.65;;;22.20;;
30543;SDS011;43388;46.308;4.600;2022-12-10T13:14:32;30.58;;;23.33;;
30543;SDS011;43388;46.308;4.600;2022-12-10T13:17:05;32.03;;;24.05;;
30543;SDS011;43388;46.308;4.600;2022-12-10T13:19:33;30.27;;;21.95;;
30543;SDS011;43388;46.308;4.600;2022-12-10T13:27:05;25.83;;;21.02;;
30543;SDS011;43388;46.308;4.600;2022-12-10T13:32:16;27.25;;;21.02;;
30543;SDS011;43388;46.308;4.600;2022-12-10T13:34:43;24.42;;;19.77;;
30543;SDS011;43388;46.308;4.600;2022-12-10T13:39:59;24.92;;;20.98;;
30543;SDS011;43388;46.308;4.600;2022-12-10T13:42:30;28.55;;;22.08;;
30543;SDS011;43388;46.308;4.600;2022-12-10T13:47:48;24.95;;;21.25;;
30543;SDS011;43388;46.308;4.600;2022-12-10T13:55:23;28.52;;;21.67;;
30543;SDS011;43388;46.308;4.600;2022-12-10T14:05:14;32.90;;;26.13;;
30543;SDS011;43388;46.308;4.600;2022-12-10T14:07:45;27.02;;;20.52;;
30543;SDS011;43388;46.308;4.600;2022-12-10T14:10:14;27.17;;;22.25;;
30543;SDS011;43388;46.308;4.600;2022-12-10T14:12:41;26.77;;;20.27;;
30543;SDS011;43388;46.308;4.600;2022-12-10T14:15:14;24.65;;;19.00;;
30543;SDS011;43388;46.308;4.600;2022-12-10T14:17:42;23.85;;;18.85;;
30543;SDS011;43388;46.308;4.600;2022-12-10T14:20:12;26.67;;;20.02;;
30543;SDS011;43388;46.308;4.600;2022-12-10T14:22:44;23.27;;;18.83;;
30543;SDS011;43388;46.308;4.600;2022-12-10T14:25:12;23.45;;;19.60;;
30543;SDS011;43388;46.308;4.600;2022-12-10T14:27:38;28.67;;;19.27;;
30543;SDS011;43388;46.308;4.600;2022-12-10T14:30:06;25.48;;;19.58;;
30543;SDS011;43388;46.308;4.600;2022-12-10T14:32:33;22.83;;;18.65;;
30543;SDS011;43388;46.308;4.600;2022-12-10T14:35:00;24.90;;;19.50;;
30543;SDS011;43388;46.308;4.600;2022-12-10T14:37:27;23.08;;;18.13;;
30543;SDS011;43388;46.308;4.600;2022-12-10T14:39:54;23.83;;;19.17;;
30543;SDS011;43388;46.308;4.600;2022-12-10T14:42:21;22.75;;;18.63;;
30543;SDS011;43388;46.308;4.600;2022-12-10T14:44:49;21.25;;;18.63;;
30543;SDS011;43388;46.308;4.600;2022-12-10T14:47:18;21.10;;;18.63;;
30543;SDS011;43388;46.308;4.600;2022-12-10T14:49:46;24.92;;;20.25;;
30543;SDS011;43388;46.308;4.600;2022-12-10T14:52:16;23.15;;;19.30;;
30543;SDS011;43388;46.308;4.600;2022-12-10T14:54:43;26.27;;;20.35;;
30543;SDS011;43388;46.308;4.600;2022-12-10T14:57:13;26.08;;;19.33;;
30543;SDS011;43388;46.308;4.600;2022-12-10T15:02:15;22.45;;;19.27;;
30543;SDS011;43388;46.308;4.600;2022-12-10T15:04:43;23.40;;;20.48;;
30543;SDS011;43388;46.308;4.600;2022-12-10T15:07:14;24.65;;;19.77;;
30543;SDS011;43388;46.308;4.600;2022-12-10T15:09:42;25.58;;;20.98;;
30543;SDS011;43388;46.308;4.600;2022-12-10T15:15:12;25.50;;;19.85;;
30543;SDS011;43388;46.308;4.600;2022-12-10T15:17:43;25.20;;;20.73;;
30543;SDS011;43388;46.308;4.600;2022-12-10T15:20:26;25.63;;;20.80;;
30543;SDS011;43388;46.308;4.600;2022-12-10T15:22:53;23.30;;;20.08;;
30543;SDS011;43388;46.308;4.600;2022-12-10T15:25:24;23.83;;;19.75;;
30543;SDS011;43388;46.308;4.600;2022-12-10T15:27:55;22.98;;;19.73;;
30543;SDS011;43388;46.308;4.600;2022-12-10T15:30:25;25.10;;;20.73;;
30543;SDS011;43388;46.308;4.600;2022-12-10T15:32:57;21.75;;;18.00;;
30543;SDS011;43388;46.308;4.600;2022-12-10T15:35:23;22.55;;;19.05;;
30543;SDS011;43388;46.308;4.600;2022-12-10T15:37:50;21.00;;;18.52;;
30543;SDS011;43388;46.308;4.600;2022-12-10T15:40:26;23.23;;;19.00;;
30543;SDS011;43388;46.308;4.600;2022-12-10T15:42:56;23.60;;;19.70;;
30543;SDS011;43388;46.308;4.600;2022-12-10T15:45:38;25.33;;;19.45;;
30543;SDS011;43388;46.308;4.600;2022-12-10T15:48:07;22.85;;;19.27;;
30543;SDS011;43388;46.308;4.600;2022-12-10T15:50:33;23.35;;;19.35;;
30543;SDS011;43388;46.308;4.600;2022-12-10T15:53:00;22.25;;;19.27;;
30543;SDS011;43388;46.308;4.600;2022-12-10T15:55:26;22.08;;;18.60;;
30543;SDS011;43388;46.308;4.600;2022-12-10T15:57:52;23.15;;;19.77;;
30543;SDS011;43388;46.308;4.600;2022-12-10T16:00:19;22.85;;;19.83;;
30543;SDS011;43388;46.308;4.600;2022-12-10T16:05:21;26.95;;;22.52;;
30543;SDS011;43388;46.308;4.600;2022-12-10T16:07:48;30.55;;;23.58;;
30543;SDS011;43388;46.308;4.600;2022-12-10T16:10:15;20.60;;;18.35;;
30543;SDS011;43388;46.308;4.600;2022-12-10T16:12:42;22.60;;;18.50;;
30543;SDS011;43388;46.308;4.600;2022-12-10T16:15:11;23.35;;;18.00;;
30543;SDS011;43388;46.308;4.600;2022-12-10T16:17:41;30.58;;;25.10;;
30543;SDS011;43388;46.308;4.600;2022-12-10T16:20:22;27.55;;;22.58;;
30543;SDS011;43388;46.308;4.600;2022-12-10T16:22:50;27.55;;;22.75;;
30543;SDS011;43388;46.308;4.600;2022-12-10T16:25:16;25.10;;;21.88;;
30543;SDS011;43388;46.308;4.600;2022-12-10T16:27:42;21.33;;;18.38;;
30543;SDS011;43388;46.308;4.600;2022-12-10T16:30:19;19.58;;;16.58;;